sensor_id;sensor_type;location;lat;lon;timestamp;P1;durP1;ratioP1;P2;durP2;ratioP2
72479;SDS011;60503;43.540;-5.510;2023-05-08T00:00:23;3.97;;;1.38;;
72479;SDS011;60503;43.540;-5.510;2023-05-08T00:02:49;5.22;;;1.25;;
72479;SDS011;60503;43.540;-5.510;2023-05-08T00:05:14;2.30;;;1.00;;
72479;SDS011;60503;43.540;-5.510;2023-05-08T00:07:40;7.93;;;1.52;;
72479;SDS011;60503;43.540;-5.510;2023-05-08T00:10:07;4.78;;;1.23;;
72479;SDS011;60503;43.540;-5.510;2023-05-08T00:12:34;3.13;;;1.38;;
72479;SDS011;60503;43.540;-5.510;2023-05-08T00:15:00;2.75;;;1.00;;
72479;SDS011;60503;43.540;-5.510;2023-05-08T00:17:25;3.38;;;1.20;;
72479;SDS011;60503;43.540;-5.510;2023-05-08T00:19:51;5.47;;;1.20;;
72479;SDS011;60503;43.540;-5.510;2023-05-08T00:22:17;4.35;;;1.30;;
72479;SDS011;60503;43.540;-5.510;2023-05-08T00:24:43;4.47;;;1.30;;
72479;SDS011;60503;43.540;-5.510;2023-05-08T00:27:08;4.70;;;1.40;;
72479;SDS011;60503;43.540;-5.510;2023-05-08T00:29:34;4.35;;;1.20;;
72479;SDS011;60503;43.540;-5.510;2023-05-08T00:32:00;2.45;;;1.25;;
72479;SDS011;60503;43.540;-5.510;2023-05-08T00:34:26;3.13;;;1.33;;
72479;SDS011;60503;43.540;-5.510;2023-05-08T00:36:52;5.47;;;1.70;;
72479;SDS011;60503;43.540;-5.510;2023-05-08T00:39:17;5.07;;;1.35;;
72479;SDS011;60503;43.540;-5.510;2023-05-08T00:41:43;5.93;;;1.20;;
72479;SDS011;60503;43.540;-5.510;2023-05-08T00:44:08;5.10;;;1.40;;
72479;SDS011;60503;43.540;-5.510;2023-05-08T00:46:34;3.10;;;1.40;;
72479;SDS011;60503;43.540;-5.510;2023-05-08T00:49:01;6.95;;;1.73;;
72479;SDS011;60503;43.540;-5.510;2023-05-08T00:51:28;5.88;;;1.50;;
72479;SDS011;60503;43.540;-5.510;2023-05-08T00:53:54;4.32;;;1.30;;
72479;SDS011;60503;43.540;-5.510;2023-05-08T00:56:20;7.20;;;1.30;;
72479;SDS011;60503;43.540;-5.510;2023-05-08T00:58:46;4.60;;;1.20;;
72479;SDS011;60503;43.540;-5.510;2023-05-08T01:01:12;5.55;;;1.30;;
72479;SDS011;60503;43.540;-5.510;2023-05-08T01:03:38;7.00;;;1.40;;
72479;SDS011;60503;43.540;-5.510;2023-05-08T01:06:04;5.88;;;1.30;;
72479;SDS011;60503;43.540;-5.510;2023-05-08T01:08:31;5.60;;;1.30;;
72479;SDS011;60503;43.540;-5.510;2023-05-08T01:13:36;5.38;;;1.35;;
72479;SDS011;60503;43.540;-5.510;2023-05-08T01:16:13;4.45;;;1.20;;
72479;SDS011;60503;43.540;-5.510;2023-05-08T01:18:50;3.65;;;1.30;;
72479;SDS011;60503;43.540;-5.510;2023-05-08T01:21:35;4.55;;;1.40;;
72479;SDS011;60503;43.540;-5.510;2023-05-08T01:26:50;2.70;;;1.20;;
72479;SDS011;60503;43.540;-5.510;2023-05-08T01:32:13;4.45;;;1.40;;
72479;SDS011;60503;43.540;-5.510;2023-05-08T01:34:48;5.80;;;1.45;;
72479;SDS011;60503;43.540;-5.510;2023-05-08T01:37:18;5.15;;;1.35;;
72479;SDS011;60503;43.540;-5.510;2023-05-08T01:45:35;6.88;;;1.67;;
72479;SDS011;60503;43.540;-5.510;2023-05-08T01:48:14;5.38;;;1.50;;
72479;SDS011;60503;43.540;-5.510;2023-05-08T01:50:45;3.67;;;1.25;;
72479;SDS011;60503;43.540;-5.510;2023-05-08T01:53:35;5.22;;;1.20;;
72479;SDS011;60503;43.540;-5.510;2023-05-08T01:56:21;3.28;;;1.05;;
72479;SDS011;60503;43.540;-5.510;2023-05-08T01:58:52;5.38;;;1.92;;
72479;SDS011;60503;43.540;-5.510;2023-05-08T02:01:19;6.37;;;1.53;;
72479;SDS011;60503;43.540;-5.510;2023-05-08T02:03:47;6.80;;;1.65;;
72479;SDS011;60503;43.540;-5.510;2023-05-08T02:06:13;2.95;;;1.30;;
72479;SDS011;60503;43.540;-5.510;2023-05-08T02:08:40;6.00;;;1.63;;
72479;SDS011;60503;43.540;-5.510;2023-05-08T02:11:08;8.90;;;1.70;;
72479;SDS011;60503;43.540;-5.510;2023-05-08T02:13:35;3.55;;;1.40;;
72479;SDS011;60503;43.540;-5.510;2023-05-08T02:16:01;7.72;;;1.98;;
72479;SDS011;60503;43.540;-5.510;2023-05-08T02:18:27;8.45;;;1.70;;
72479;SDS011;60503;43.540;-5.510;2023-05-08T02:20:54;6.22;;;1.60;;
72479;SDS011;60503;43.540;-5.510;2023-05-08T02:23:21;6.50;;;1.60;;
72479;SDS011;60503;43.540;-5.510;2023-05-08T02:25:48;8.48;;;1.75;;
72479;SDS011;60503;43.540;-5.510;2023-05-08T02:28:15;4.30;;;1.55;;
72479;SDS011;60503;43.540;-5.510;2023-05-08T02:30:40;5.50;;;1.77;;
72479;SDS011;60503;43.540;-5.510;2023-05-08T02:33:07;3.53;;;1.35;;
72479;SDS011;60503;43.540;-5.510;2023-05-08T02:35:33;4.93;;;1.83;;
72479;SDS011;60503;43.540;-5.510;2023-05-08T02:38:00;5.63;;;1.55;;
72479;SDS011;60503;43.540;-5.510;2023-05-08T02:40:26;4.10;;;1.50;;
72479;SDS011;60503;43.540;-5.510;2023-05-08T02:42:53;6.63;;;1.42;;
72479;SDS011;60503;43.540;-5.510;2023-05-08T02:45:19;3.53;;;1.50;;
72479;SDS011;60503;43.540;-5.510;2023-05-08T02:48:03;5.32;;;1.60;;
72479;SDS011;60503;43.540;-5.510;2023-05-08T02:50:44;6.07;;;1.83;;
72479;SDS011;60503;43.540;-5.510;2023-05-08T02:53:16;6.45;;;1.52;;
72479;SDS011;60503;43.540;-5.510;2023-05-08T02:55:48;6.15;;;1.70;;
72479;SDS011;60503;43.540;-5.510;2023-05-08T03:00:57;3.83;;;1.40;;
72479;SDS011;60503;43.540;-5.510;2023-05-08T03:03:31;5.55;;;1.60;;
72479;SDS011;60503;43.540;-5.510;2023-05-08T03:06:02;3.50;;;1.55;;
72479;SDS011;60503;43.540;-5.510;2023-05-08T03:08:34;5.07;;;1.67;;
72479;SDS011;60503;43.540;-5.510;2023-05-08T03:11:02;5.00;;;1.65;;
72479;SDS011;60503;43.540;-5.510;2023-05-08T03:13:33;4.80;;;1.58;;
72479;SDS011;60503;43.540;-5.510;2023-05-08T03:16:00;8.55;;;1.80;;
72479;SDS011;60503;43.540;-5.510;2023-05-08T03:18:29;5.68;;;1.83;;
72479;SDS011;60503;43.540;-5.510;2023-05-08T03:20:58;2.95;;;1.85;;
72479;SDS011;60503;43.540;-5.510;2023-05-08T03:23:25;4.00;;;1.65;;
72479;SDS011;60503;43.540;-5.510;2023-05-08T03:25:51;5.43;;;2.17;;
72479;SDS011;60503;43.540;-5.510;2023-05-08T03:28:18;4.03;;;1.80;;
72479;SDS011;60503;43.540;-5.510;2023-05-08T03:30:44;5.85;;;1.88;;
72479;SDS011;60503;43.540;-5.510;2023-05-08T03:33:10;6.47;;;2.15;;
72479;SDS011;60503;43.540;-5.510;2023-05-08T03:35:37;5.05;;;1.77;;
72479;SDS011;60503;43.540;-5.510;2023-05-08T03:41:24;6.25;;;2.63;;
72479;SDS011;60503;43.540;-5.510;2023-05-08T03:43:50;4.47;;;2.15;;
72479;SDS011;60503;43.540;-5.510;2023-05-08T03:46:17;6.10;;;2.25;;
72479;SDS011;60503;43.540;-5.510;2023-05-08T03:48:43;5.88;;;1.98;;
72479;SDS011;60503;43.540;-5.510;2023-05-08T03:51:09;6.70;;;2.17;;
72479;SDS011;60503;43.540;-5.510;2023-05-08T03:53:35;5.25;;;2.35;;
72479;SDS011;60503;43.540;-5.510;2023-05-08T03:56:00;6.03;;;2.10;;
72479;SDS011;60503;43.540;-5.510;2023-05-08T03:58:37;5.10;;;2.10;;
72479;SDS011;60503;43.540;-5.510;2023-05-08T04:01:20;5.10;;;2.20;;
72479;SDS011;60503;43.540;-5.510;2023-05-08T04:04:03;6.63;;;2.17;;
72479;SDS011;60503;43.540;-5.510;2023-05-08T04:13:30;4.97;;;2.30;;
72479;SDS011;60503;43.540;-5.510;2023-05-08T04:15:30;7.03;;;2.60;;
72479;SDS011;60503;43.540;-5.510;2023-05-08T04:17:59;10.90;;;2.03;;
72479;SDS011;60503;43.540;-5.510;2023-05-08T04:20:30;6.15;;;2.00;;
72479;SDS011;60503;43.540;-5.510;2023-05-08T04:22:56;4.90;;;2.15;;
72479;SDS011;60503;43.540;-5.510;2023-05-08T04:25:23;8.32;;;2.28;;
72479;SDS011;60503;43.540;-5.510;2023-05-08T04:27:49;7.20;;;2.30;;
72479;SDS011;60503;43.540;-5.510;2023-05-08T04:30:16;5.75;;;2.28;;
72479;SDS011;60503;43.540;-5.510;2023-05-08T04:32:41;6.75;;;2.17;;
72479;SDS011;60503;43.540;-5.510;2023-05-08T04:35:07;10.65;;;2.70;;
72479;SDS011;60503;43.540;-5.510;2023-05-08T04:37:33;6.57;;;2.55;;
72479;SDS011;60503;43.540;-5.510;2023-05-08T04:39:59;8.52;;;2.50;;
72479;SDS011;60503;43.540;-5.510;2023-05-08T12:49:44;8.05;;;2.53;;
72479;SDS011;60503;43.540;-5.510;2023-05-08T12:52:13;8.07;;;2.53;;
72479;SDS011;60503;43.540;-5.510;2023-05-08T12:54:45;6.70;;;2.55;;
72479;SDS011;60503;43.540;-5.510;2023-05-08T12:57:11;7.88;;;2.78;;
72479;SDS011;60503;43.540;-5.510;2023-05-08T12:59:38;10.98;;;3.25;;
72479;SDS011;60503;43.540;-5.510;2023-05-08T13:02:10;6.32;;;2.58;;
72479;SDS011;60503;43.540;-5.510;2023-05-08T13:04:40;7.65;;;2.60;;
72479;SDS011;60503;43.540;-5.510;2023-05-08T13:07:05;5.45;;;2.00;;
72479;SDS011;60503;43.540;-5.510;2023-05-08T13:09:31;6.97;;;2.30;;
72479;SDS011;60503;43.540;-5.510;2023-05-08T13:11:57;7.43;;;2.50;;
72479;SDS011;60503;43.540;-5.510;2023-05-08T13:14:23;6.47;;;2.00;;
72479;SDS011;60503;43.540;-5.510;2023-05-08T13:16:48;7.65;;;2.40;;
72479;SDS011;60503;43.540;-5.510;2023-05-08T13:19:15;5.90;;;2.13;;
72479;SDS011;60503;43.540;-5.510;2023-05-08T13:21:42;8.43;;;3.05;;
72479;SDS011;60503;43.540;-5.510;2023-05-08T13:24:15;10.07;;;2.90;;
72479;SDS011;60503;43.540;-5.510;2023-05-08T13:26:41;11.55;;;3.20;;
72479;SDS011;60503;43.540;-5.510;2023-05-08T13:29:07;9.90;;;2.97;;
72479;SDS011;60503;43.540;-5.510;2023-05-08T13:31:32;8.55;;;2.65;;
72479;SDS011;60503;43.540;-5.510;2023-05-08T13:33:58;10.50;;;2.97;;
72479;SDS011;60503;43.540;-5.510;2023-05-08T13:36:23;6.78;;;2.40;;
72479;SDS011;60503;43.540;-5.510;2023-05-08T13:38:49;6.82;;;2.30;;
72479;SDS011;60503;43.540;-5.510;2023-05-08T13:41:21;4.55;;;1.92;;
72479;SDS011;60503;43.540;-5.510;2023-05-08T13:43:46;7.00;;;2.13;;
72479;SDS011;60503;43.540;-5.510;2023-05-08T13:46:12;7.10;;;2.50;;
72479;SDS011;60503;43.540;-5.510;2023-05-08T13:48:37;9.95;;;2.33;;
72479;SDS011;60503;43.540;-5.510;2023-05-08T13:51:03;7.30;;;2.03;;
72479;SDS011;60503;43.540;-5.510;2023-05-08T13:53:29;7.32;;;1.90;;
72479;SDS011;60503;43.540;-5.510;2023-05-08T13:55:54;7.03;;;2.05;;
72479;SDS011;60503;43.540;-5.510;2023-05-08T13:58:20;9.23;;;2.08;;
72479;SDS011;60503;43.540;-5.510;2023-05-08T14:00:46;7.22;;;2.25;;
72479;SDS011;60503;43.540;-5.510;2023-05-08T14:03:11;7.93;;;2.10;;
72479;SDS011;60503;43.540;-5.510;2023-05-08T14:05:37;9.32;;;2.25;;
72479;SDS011;60503;43.540;-5.510;2023-05-08T14:08:02;6.03;;;2.20;;
72479;SDS011;60503;43.540;-5.510;2023-05-08T14:10:28;12.35;;;2.20;;
72479;SDS011;60503;43.540;-5.510;2023-05-08T14:12:54;6.40;;;2.33;;
72479;SDS011;60503;43.540;-5.510;2023-05-08T14:15:19;5.80;;;1.80;;
72479;SDS011;60503;43.540;-5.510;2023-05-08T14:17:45;8.52;;;2.13;;
72479;SDS011;60503;43.540;-5.510;2023-05-08T14:20:11;10.38;;;2.38;;
72479;SDS011;60503;43.540;-5.510;2023-05-08T14:22:36;8.05;;;2.38;;
72479;SDS011;60503;43.540;-5.510;2023-05-08T14:25:02;6.88;;;2.10;;
72479;SDS011;60503;43.540;-5.510;2023-05-08T14:27:28;7.43;;;2.67;;
72479;SDS011;60503;43.540;-5.510;2023-05-08T14:29:54;4.65;;;1.98;;
72479;SDS011;60503;43.540;-5.510;2023-05-08T14:32:19;10.00;;;2.70;;
72479;SDS011;60503;43.540;-5.510;2023-05-08T14:34:45;10.55;;;2.58;;
72479;SDS011;60503;43.540;-5.510;2023-05-08T14:37:10;6.97;;;2.50;;
72479;SDS011;60503;43.540;-5.510;2023-05-08T14:39:37;6.80;;;2.35;;
72479;SDS011;60503;43.540;-5.510;2023-05-08T14:42:02;8.52;;;2.45;;
72479;SDS011;60503;43.540;-5.510;2023-05-08T14:44:28;11.38;;;2.25;;
72479;SDS011;60503;43.540;-5.510;2023-05-08T14:46:54;8.75;;;2.53;;
72479;SDS011;60503;43.540;-5.510;2023-05-08T14:49:19;9.88;;;2.00;;
72479;SDS011;60503;43.540;-5.510;2023-05-08T14:51:45;8.40;;;2.42;;
72479;SDS011;60503;43.540;-5.510;2023-05-08T14:54:10;7.90;;;2.45;;
72479;SDS011;60503;43.540;-5.510;2023-05-08T14:56:36;8.63;;;2.40;;
72479;SDS011;60503;43.540;-5.510;2023-05-08T14:59:01;7.22;;;2.10;;
72479;SDS011;60503;43.540;-5.510;2023-05-08T15:01:27;8.15;;;2.25;;
72479;SDS011;60503;43.540;-5.510;2023-05-08T15:03:52;6.90;;;1.90;;
72479;SDS011;60503;43.540;-5.510;2023-05-08T15:06:19;8.00;;;2.40;;
72479;SDS011;60503;43.540;-5.510;2023-05-08T15:08:46;4.95;;;1.80;;
72479;SDS011;60503;43.540;-5.510;2023-05-08T15:11:12;6.78;;;2.00;;
72479;SDS011;60503;43.540;-5.510;2023-05-08T15:13:37;7.53;;;2.17;;
72479;SDS011;60503;43.540;-5.510;2023-05-08T15:16:03;10.57;;;2.25;;
72479;SDS011;60503;43.540;-5.510;2023-05-08T15:18:29;6.85;;;2.03;;
72479;SDS011;60503;43.540;-5.510;2023-05-08T15:20:54;8.80;;;2.20;;
72479;SDS011;60503;43.540;-5.510;2023-05-08T15:23:21;6.95;;;2.22;;
72479;SDS011;60503;43.540;-5.510;2023-05-08T15:25:47;8.00;;;2.15;;
72479;SDS011;60503;43.540;-5.510;2023-05-08T15:28:13;8.65;;;1.77;;
72479;SDS011;60503;43.540;-5.510;2023-05-08T15:30:39;14.30;;;2.35;;
72479;SDS011;60503;43.540;-5.510;2023-05-08T15:33:04;7.30;;;1.88;;
72479;SDS011;60503;43.540;-5.510;2023-05-08T15:35:30;11.68;;;1.85;;
72479;SDS011;60503;43.540;-5.510;2023-05-08T15:37:56;7.80;;;2.13;;
72479;SDS011;60503;43.540;-5.510;2023-05-08T15:40:21;9.07;;;2.30;;
72479;SDS011;60503;43.540;-5.510;2023-05-08T15:42:47;7.72;;;2.10;;
72479;SDS011;60503;43.540;-5.510;2023-05-08T15:45:12;6.15;;;1.90;;
72479;SDS011;60503;43.540;-5.510;2023-05-08T15:47:39;8.38;;;2.10;;
72479;SDS011;60503;43.540;-5.510;2023-05-08T15:50:05;8.30;;;2.30;;
72479;SDS011;60503;43.540;-5.510;2023-05-08T15:52:31;11.40;;;2.40;;
72479;SDS011;60503;43.540;-5.510;2023-05-08T15:54:56;13.80;;;2.55;;
72479;SDS011;60503;43.540;-5.510;2023-05-08T15:57:22;14.23;;;2.03;;
72479;SDS011;60503;43.540;-5.510;2023-05-08T15:59:48;10.60;;;2.58;;
72479;SDS011;60503;43.540;-5.510;2023-05-08T16:02:13;15.07;;;2.63;;
72479;SDS011;60503;43.540;-5.510;2023-05-08T16:04:39;14.07;;;2.53;;
72479;SDS011;60503;43.540;-5.510;2023-05-08T16:07:05;9.18;;;2.38;;
72479;SDS011;60503;43.540;-5.510;2023-05-08T16:09:30;9.30;;;2.40;;
72479;SDS011;60503;43.540;-5.510;2023-05-08T16:11:56;11.35;;;2.10;;
72479;SDS011;60503;43.540;-5.510;2023-05-08T16:14:28;10.23;;;2.13;;
72479;SDS011;60503;43.540;-5.510;2023-05-08T16:16:56;11.43;;;2.42;;
72479;SDS011;60503;43.540;-5.510;2023-05-08T16:19:22;11.95;;;2.90;;
72479;SDS011;60503;43.540;-5.510;2023-05-08T16:21:48;11.05;;;2.58;;
72479;SDS011;60503;43.540;-5.510;2023-05-08T16:24:16;14.98;;;2.95;;
72479;SDS011;60503;43.540;-5.510;2023-05-08T16:26:42;15.18;;;3.13;;
72479;SDS011;60503;43.540;-5.510;2023-05-08T16:29:08;13.77;;;3.05;;
72479;SDS011;60503;43.540;-5.510;2023-05-08T16:31:35;11.05;;;2.75;;
72479;SDS011;60503;43.540;-5.510;2023-05-08T16:34:01;8.02;;;2.17;;
72479;SDS011;60503;43.540;-5.510;2023-05-08T16:36:27;11.20;;;2.55;;
72479;SDS011;60503;43.540;-5.510;2023-05-08T16:38:52;6.80;;;1.92;;
72479;SDS011;60503;43.540;-5.510;2023-05-08T16:41:18;7.78;;;2.00;;
72479;SDS011;60503;43.540;-5.510;2023-05-08T16:43:45;12.35;;;2.67;;
72479;SDS011;60503;43.540;-5.510;2023-05-08T16:46:11;8.90;;;2.28;;
72479;SDS011;60503;43.540;-5.510;2023-05-08T16:48:36;8.20;;;2.30;;
72479;SDS011;60503;43.540;-5.510;2023-05-08T16:51:02;11.20;;;2.40;;
72479;SDS011;60503;43.540;-5.510;2023-05-08T16:53:27;9.10;;;2.55;;
72479;SDS011;60503;43.540;-5.510;2023-05-08T16:55:53;10.98;;;2.47;;
72479;SDS011;60503;43.540;-5.510;2023-05-08T16:58:19;10.63;;;2.20;;
72479;SDS011;60503;43.540;-5.510;2023-05-08T17:00:46;10.40;;;2.10;;
72479;SDS011;60503;43.540;-5.510;2023-05-08T17:03:12;12.13;;;2.80;;
72479;SDS011;60503;43.540;-5.510;2023-05-08T17:05:37;11.55;;;2.60;;
72479;SDS011;60503;43.540;-5.510;2023-05-08T17:08:06;9.25;;;2.20;;
72479;SDS011;60503;43.540;-5.510;2023-05-08T17:10:34;10.63;;;2.42;;
72479;SDS011;60503;43.540;-5.510;2023-05-08T17:13:03;10.10;;;2.30;;
72479;SDS011;60503;43.540;-5.510;2023-05-08T17:15:29;9.63;;;2.13;;
72479;SDS011;60503;43.540;-5.510;2023-05-08T17:17:55;11.65;;;2.40;;
72479;SDS011;60503;43.540;-5.510;2023-05-08T17:20:21;7.72;;;2.17;;
72479;SDS011;60503;43.540;-5.510;2023-05-08T17:22:46;7.68;;;2.20;;
72479;SDS011;60503;43.540;-5.510;2023-05-08T17:25:12;10.57;;;2.00;;
72479;SDS011;60503;43.540;-5.510;2023-05-08T17:27:37;7.30;;;2.10;;
72479;SDS011;60503;43.540;-5.510;2023-05-08T17:30:03;8.45;;;2.20;;
72479;SDS011;60503;43.540;-5.510;2023-05-08T17:32:35;8.93;;;1.80;;
72479;SDS011;60503;43.540;-5.510;2023-05-08T17:49:09;6.75;;;2.03;;
72479;SDS011;60503;43.540;-5.510;2023-05-08T17:51:36;9.10;;;1.92;;
72479;SDS011;60503;43.540;-5.510;2023-05-08T17:54:01;8.70;;;1.90;;
72479;SDS011;60503;43.540;-5.510;2023-05-08T17:56:27;10.48;;;2.08;;
72479;SDS011;60503;43.540;-5.510;2023-05-08T17:58:52;14.50;;;2.40;;
72479;SDS011;60503;43.540;-5.510;2023-05-08T18:01:19;8.02;;;1.85;;
72479;SDS011;60503;43.540;-5.510;2023-05-08T18:03:45;7.68;;;1.90;;
72479;SDS011;60503;43.540;-5.510;2023-05-08T18:06:16;6.35;;;1.80;;
72479;SDS011;60503;43.540;-5.510;2023-05-08T18:08:42;7.75;;;2.13;;
72479;SDS011;60503;43.540;-5.510;2023-05-08T18:11:18;7.35;;;1.92;;
72479;SDS011;60503;43.540;-5.510;2023-05-08T18:13:43;9.07;;;2.00;;
72479;SDS011;60503;43.540;-5.510;2023-05-08T18:16:09;10.60;;;2.00;;
72479;SDS011;60503;43.540;-5.510;2023-05-08T18:18:35;7.80;;;1.70;;
72479;SDS011;60503;43.540;-5.510;2023-05-08T18:21:00;5.70;;;1.50;;
72479;SDS011;60503;43.540;-5.510;2023-05-08T18:23:26;4.90;;;1.00;;
72479;SDS011;60503;43.540;-5.510;2023-05-08T18:25:52;5.00;;;1.20;;
72479;SDS011;60503;43.540;-5.510;2023-05-08T18:28:17;4.72;;;1.25;;
72479;SDS011;60503;43.540;-5.510;2023-05-08T18:30:43;5.25;;;1.67;;
72479;SDS011;60503;43.540;-5.510;2023-05-08T18:33:08;4.85;;;1.40;;
72479;SDS011;60503;43.540;-5.510;2023-05-08T18:35:34;7.25;;;2.10;;
72479;SDS011;60503;43.540;-5.510;2023-05-08T18:37:59;4.07;;;1.60;;
72479;SDS011;60503;43.540;-5.510;2023-05-08T18:40:25;6.15;;;1.40;;
72479;SDS011;60503;43.540;-5.510;2023-05-08T18:42:50;3.95;;;1.48;;
72479;SDS011;60503;43.540;-5.510;2023-05-08T18:48:38;4.63;;;1.23;;
72479;SDS011;60503;43.540;-5.510;2023-05-08T18:51:04;2.67;;;1.20;;
72479;SDS011;60503;43.540;-5.510;2023-05-08T18:53:30;5.40;;;1.55;;
72479;SDS011;60503;43.540;-5.510;2023-05-08T18:55:57;3.20;;;1.10;;
72479;SDS011;60503;43.540;-5.510;2023-05-08T19:08:42;2.85;;;1.00;;
72479;SDS011;60503;43.540;-5.510;2023-05-08T19:11:12;3.40;;;1.35;;
72479;SDS011;60503;43.540;-5.510;2023-05-08T19:13:45;3.20;;;0.93;;
72479;SDS011;60503;43.540;-5.510;2023-05-08T19:16:13;8.80;;;1.50;;
72479;SDS011;60503;43.540;-5.510;2023-05-08T19:18:39;4.22;;;1.35;;
72479;SDS011;60503;43.540;-5.510;2023-05-08T19:21:15;4.65;;;1.35;;
72479;SDS011;60503;43.540;-5.510;2023-05-08T19:23:41;5.90;;;1.63;;
72479;SDS011;60503;43.540;-5.510;2023-05-08T19:26:09;4.13;;;1.17;;
72479;SDS011;60503;43.540;-5.510;2023-05-08T19:28:35;6.00;;;1.58;;
72479;SDS011;60503;43.540;-5.510;2023-05-08T19:31:01;3.45;;;1.50;;
72479;SDS011;60503;43.540;-5.510;2023-05-08T19:33:26;4.00;;;1.50;;
72479;SDS011;60503;43.540;-5.510;2023-05-08T19:35:52;4.72;;;2.00;;
72479;SDS011;60503;43.540;-5.510;2023-05-08T19:38:18;5.90;;;1.35;;
72479;SDS011;60503;43.540;-5.510;2023-05-08T19:40:48;5.63;;;1.60;;
72479;SDS011;60503;43.540;-5.510;2023-05-08T19:43:32;5.22;;;1.77;;
72479;SDS011;60503;43.540;-5.510;2023-05-08T19:46:01;4.30;;;1.65;;
72479;SDS011;60503;43.540;-5.510;2023-05-08T19:48:54;3.78;;;1.23;;
72479;SDS011;60503;43.540;-5.510;2023-05-08T19:51:42;6.65;;;1.65;;
72479;SDS011;60503;43.540;-5.510;2023-05-08T19:56:40;6.32;;;1.80;;
72479;SDS011;60503;43.540;-5.510;2023-05-08T19:59:15;7.40;;;1.60;;
72479;SDS011;60503;43.540;-5.510;2023-05-08T20:01:50;7.50;;;2.58;;
72479;SDS011;60503;43.540;-5.510;2023-05-08T20:04:20;14.02;;;4.00;;
72479;SDS011;60503;43.540;-5.510;2023-05-08T20:06:52;21.95;;;6.00;;
72479;SDS011;60503;43.540;-5.510;2023-05-08T20:09:20;26.38;;;6.78;;
72479;SDS011;60503;43.540;-5.510;2023-05-08T20:11:50;10.88;;;3.42;;
72479;SDS011;60503;43.540;-5.510;2023-05-08T20:14:26;3.50;;;1.60;;
72479;SDS011;60503;43.540;-5.510;2023-05-08T20:16:54;7.18;;;1.60;;
72479;SDS011;60503;43.540;-5.510;2023-05-08T20:19:23;7.13;;;1.70;;
72479;SDS011;60503;43.540;-5.510;2023-05-08T20:21:54;5.03;;;1.85;;
72479;SDS011;60503;43.540;-5.510;2023-05-08T20:24:20;7.13;;;2.25;;
72479;SDS011;60503;43.540;-5.510;2023-05-08T20:26:49;4.95;;;1.98;;
72479;SDS011;60503;43.540;-5.510;2023-05-08T20:29:19;6.03;;;2.15;;
72479;SDS011;60503;43.540;-5.510;2023-05-08T20:31:48;8.35;;;2.80;;
72479;SDS011;60503;43.540;-5.510;2023-05-08T20:34:21;11.88;;;3.55;;
72479;SDS011;60503;43.540;-5.510;2023-05-08T20:36:53;12.98;;;3.78;;
72479;SDS011;60503;43.540;-5.510;2023-05-08T20:39:24;16.65;;;4.35;;
72479;SDS011;60503;43.540;-5.510;2023-05-08T20:41:50;11.88;;;4.35;;
72479;SDS011;60503;43.540;-5.510;2023-05-08T20:44:35;15.63;;;4.93;;
72479;SDS011;60503;43.540;-5.510;2023-05-08T20:47:01;11.50;;;4.35;;
72479;SDS011;60503;43.540;-5.510;2023-05-08T20:49:27;10.45;;;4.03;;
72479;SDS011;60503;43.540;-5.510;2023-05-08T20:51:52;10.93;;;3.80;;
72479;SDS011;60503;43.540;-5.510;2023-05-08T20:54:18;9.95;;;3.55;;
72479;SDS011;60503;43.540;-5.510;2023-05-08T20:56:44;7.47;;;2.95;;
72479;SDS011;60503;43.540;-5.510;2023-05-08T20:59:09;10.65;;;3.33;;
72479;SDS011;60503;43.540;-5.510;2023-05-08T21:01:35;10.75;;;3.78;;
72479;SDS011;60503;43.540;-5.510;2023-05-08T21:04:01;11.45;;;3.45;;
72479;SDS011;60503;43.540;-5.510;2023-05-08T21:06:26;7.68;;;3.30;;
72479;SDS011;60503;43.540;-5.510;2023-05-08T21:08:52;5.85;;;2.78;;
72479;SDS011;60503;43.540;-5.510;2023-05-08T21:11:18;6.00;;;2.95;;
72479;SDS011;60503;43.540;-5.510;2023-05-08T21:13:43;9.77;;;2.78;;
72479;SDS011;60503;43.540;-5.510;2023-05-08T21:16:09;8.02;;;3.05;;
72479;SDS011;60503;43.540;-5.510;2023-05-08T21:18:35;9.40;;;2.92;;
72479;SDS011;60503;43.540;-5.510;2023-05-08T21:21:01;6.32;;;3.00;;
72479;SDS011;60503;43.540;-5.510;2023-05-08T21:23:27;7.57;;;2.60;;
72479;SDS011;60503;43.540;-5.510;2023-05-08T21:25:53;9.90;;;2.78;;
72479;SDS011;60503;43.540;-5.510;2023-05-08T21:28:19;6.75;;;2.40;;
72479;SDS011;60503;43.540;-5.510;2023-05-08T21:30:44;6.45;;;2.30;;
72479;SDS011;60503;43.540;-5.510;2023-05-08T21:33:11;7.47;;;2.03;;
72479;SDS011;60503;43.540;-5.510;2023-05-08T21:35:41;4.88;;;2.10;;
72479;SDS011;60503;43.540;-5.510;2023-05-08T21:38:07;8.10;;;2.40;;
72479;SDS011;60503;43.540;-5.510;2023-05-08T21:40:36;5.18;;;2.00;;
72479;SDS011;60503;43.540;-5.510;2023-05-08T21:43:02;4.10;;;2.08;;
72479;SDS011;60503;43.540;-5.510;2023-05-08T21:45:31;5.80;;;1.75;;
72479;SDS011;60503;43.540;-5.510;2023-05-08T21:47:57;9.95;;;2.00;;
72479;SDS011;60503;43.540;-5.510;2023-05-08T21:50:24;3.78;;;1.70;;
72479;SDS011;60503;43.540;-5.510;2023-05-08T21:52:49;4.65;;;1.92;;
72479;SDS011;60503;43.540;-5.510;2023-05-08T21:55:17;4.07;;;2.00;;
72479;SDS011;60503;43.540;-5.510;2023-05-08T21:57:43;5.30;;;1.95;;
72479;SDS011;60503;43.540;-5.510;2023-05-08T22:00:09;5.85;;;1.70;;
72479;SDS011;60503;43.540;-5.510;2023-05-08T22:02:34;3.47;;;1.98;;
72479;SDS011;60503;43.540;-5.510;2023-05-08T22:05:00;6.15;;;1.73;;
72479;SDS011;60503;43.540;-5.510;2023-05-08T22:07:26;3.20;;;1.90;;
72479;SDS011;60503;43.540;-5.510;2023-05-08T22:09:52;5.45;;;1.80;;
72479;SDS011;60503;43.540;-5.510;2023-05-08T22:12:18;4.03;;;1.70;;
72479;SDS011;60503;43.540;-5.510;2023-05-08T22:14:43;4.78;;;2.05;;
72479;SDS011;60503;43.540;-5.510;2023-05-08T22:17:09;5.32;;;2.17;;
72479;SDS011;60503;43.540;-5.510;2023-05-08T22:19:34;5.35;;;2.20;;
72479;SDS011;60503;43.540;-5.510;2023-05-08T22:22:00;3.92;;;1.80;;
72479;SDS011;60503;43.540;-5.510;2023-05-08T22:24:26;3.67;;;2.10;;
72479;SDS011;60503;43.540;-5.510;2023-05-08T22:26:51;7.55;;;2.20;;
72479;SDS011;60503;43.540;-5.510;2023-05-08T22:29:17;8.60;;;2.15;;
72479;SDS011;60503;43.540;-5.510;2023-05-08T22:31:43;5.22;;;1.90;;
72479;SDS011;60503;43.540;-5.510;2023-05-08T22:34:09;5.60;;;1.80;;
72479;SDS011;60503;43.540;-5.510;2023-05-08T22:36:35;5.45;;;2.00;;
72479;SDS011;60503;43.540;-5.510;2023-05-08T22:39:00;5.72;;;1.95;;
72479;SDS011;60503;43.540;-5.510;2023-05-08T22:41:27;7.43;;;1.60;;
72479;SDS011;60503;43.540;-5.510;2023-05-08T22:43:53;5.35;;;2.10;;
72479;SDS011;60503;43.540;-5.510;2023-05-08T22:46:20;3.88;;;1.73;;
72479;SDS011;60503;43.540;-5.510;2023-05-08T22:48:46;6.30;;;2.03;;
72479;SDS011;60503;43.540;-5.510;2023-05-08T22:51:12;3.67;;;2.08;;
72479;SDS011;60503;43.540;-5.510;2023-05-08T22:53:38;4.03;;;1.83;;
72479;SDS011;60503;43.540;-5.510;2023-05-08T22:56:03;4.05;;;2.05;;
72479;SDS011;60503;43.540;-5.510;2023-05-08T22:58:29;6.30;;;1.92;;
72479;SDS011;60503;43.540;-5.510;2023-05-08T23:00:55;7.28;;;2.05;;
72479;SDS011;60503;43.540;-5.510;2023-05-08T23:03:21;7.28;;;2.08;;
72479;SDS011;60503;43.540;-5.510;2023-05-08T23:05:46;4.38;;;2.00;;
72479;SDS011;60503;43.540;-5.510;2023-05-08T23:08:13;6.40;;;2.17;;
72479;SDS011;60503;43.540;-5.510;2023-05-08T23:10:38;5.63;;;1.77;;
72479;SDS011;60503;43.540;-5.510;2023-05-08T23:13:04;4.20;;;1.90;;
72479;SDS011;60503;43.540;-5.510;2023-05-08T23:15:30;5.05;;;1.98;;
72479;SDS011;60503;43.540;-5.510;2023-05-08T23:17:55;4.20;;;1.73;;
72479;SDS011;60503;43.540;-5.510;2023-05-08T23:20:21;4.85;;;1.95;;
72479;SDS011;60503;43.540;-5.510;2023-05-08T23:22:47;5.68;;;1.92;;
72479;SDS011;60503;43.540;-5.510;2023-05-08T23:25:12;6.68;;;1.98;;
72479;SDS011;60503;43.540;-5.510;2023-05-08T23:27:38;6.63;;;2.08;;
72479;SDS011;60503;43.540;-5.510;2023-05-08T23:30:04;4.57;;;2.10;;
72479;SDS011;60503;43.540;-5.510;2023-05-08T23:32:30;3.42;;;1.83;;
72479;SDS011;60503;43.540;-5.510;2023-05-08T23:34:56;7.25;;;2.08;;
72479;SDS011;60503;43.540;-5.510;2023-05-08T23:37:21;4.72;;;2.00;;